Time;durP1;ratioP1;P1;durP2;ratioP2;P2;SDS_P1;SDS_P2;PMS_P1;PMS_P2;Temp;Humidity;BMP_temperature;BMP_pressure;BME280_temperature;BME280_humidity;BME280_pressure;Samples;Min_cycle;Max_cycle;Signal;HPM_P1;HPM_P2
2023/09/08 00:01:35;;;;;;;84.53;69.85;;;;;;;24.63;87.19;99260.97;5103277;27;20426;-80
2023/09/08 00:04:20;;;;;;;83.28;69.85;;;;;;;24.64;87.08;99260.69;5104285;27;20045;-80
2023/09/08 00:07:04;;;;;;;88.05;73.63;;;;;;;24.38;87.78;99255.56;5104534;27;20516;-81
2023/09/08 00:09:48;;;;;;;89.93;73.20;;;;;;;24.46;87.82;99251.44;5115838;27;20088;-79
2023/09/08 00:12:32;;;;;;;89.35;74.43;;;;;;;24.56;88.07;99245.19;5100480;27;20059;-79
2023/09/08 00:15:16;;;;;;;84.53;71.88;;;;;;;24.64;87.75;99249.97;5103757;27;20050;-80
2023/09/08 00:18:00;;;;;;;83.68;69.78;;;;;;;24.61;87.43;99247.84;5102499;27;20045;-79
2023/09/08 00:20:44;;;;;;;86.00;72.68;;;;;;;24.45;88.22;99249.84;5103421;27;20107;-79
2023/09/08 00:23:28;;;;;;;85.15;72.47;;;;;;;24.40;88.31;99247.22;5104181;28;20051;-79
2023/09/08 00:26:12;;;;;;;87.75;74.97;;;;;;;24.30;88.61;99244.63;5102848;27;22672;-80
2023/09/08 00:28:56;;;;;;;85.20;72.55;;;;;;;24.51;88.03;99253.28;5117026;27;20397;-79
2023/09/08 00:31:40;;;;;;;79.07;67.47;;;;;;;24.37;88.36;99242.41;5118122;27;20057;-79
2023/09/08 00:34:24;;;;;;;90.72;75.57;;;;;;;24.28;88.83;99238.75;5101194;27;20050;-79
2023/09/08 00:37:09;;;;;;;97.47;76.82;;;;;;;24.24;89.32;99231.25;5123786;27;20456;-80
2023/09/08 00:39:53;;;;;;;99.18;80.35;;;;;;;24.25;89.40;99229.38;5104952;27;20074;-80
2023/09/08 00:42:37;;;;;;;91.35;75.90;;;;;;;24.31;89.32;99224.78;5105492;28;20518;-81
2023/09/08 00:45:21;;;;;;;96.82;79.45;;;;;;;24.37;88.99;99227.13;5120939;27;20046;-80
2023/09/08 00:48:06;;;;;;;91.13;77.30;;;;;;;24.41;88.64;99221.19;5122562;27;20054;-80
2023/09/08 00:50:51;;;;;;;96.25;78.30;;;;;;;24.30;88.84;99223.97;5122168;27;20053;-80
2023/09/08 00:53:36;;;;;;;94.90;77.63;;;;;;;24.31;88.92;99225.56;5117257;27;20046;-80
2023/09/08 00:56:20;;;;;;;106.20;83.28;;;;;;;24.13;90.11;99219.00;5102483;28;20111;-79
2023/09/08 00:59:05;;;;;;;90.75;76.00;;;;;;;24.25;89.40;99213.28;5102910;28;20046;-80
2023/09/08 01:01:49;;;;;;;87.68;75.55;;;;;;;24.27;90.10;99202.25;5103435;28;20053;-80
2023/09/08 01:04:34;;;;;;;89.88;76.03;;;;;;;24.22;89.89;99208.47;5100919;28;20037;-79
2023/09/08 01:07:19;;;;;;;104.88;83.90;;;;;;;24.13;90.49;99210.16;5120641;27;20062;-80
2023/09/08 01:10:05;;;;;;;90.75;73.80;;;;;;;24.06;90.11;99211.28;5126587;27;20396;-79
2023/09/08 01:12:50;;;;;;;89.22;74.57;;;;;;;24.02;90.06;99215.63;5114483;27;20037;-79
2023/09/08 01:15:33;;;;;;;84.97;71.13;;;;;;;23.99;90.44;99229.56;5124072;27;20039;-80
2023/09/08 01:18:17;;;;;;;94.68;77.20;;;;;;;23.94;90.76;99224.22;5125875;27;20436;-80
2023/09/08 01:21:33;;;;;;;79.53;65.45;;;;;;;23.89;90.40;99218.88;5110683;27;20405;-79
2023/09/08 01:24:38;;;;;;;95.15;75.07;;;;;;;23.81;90.96;99214.91;5123912;27;20061;-81
2023/09/08 01:27:24;;;;;;;108.43;85.70;;;;;;;23.74;92.84;99199.16;5107553;27;20442;-79
2023/09/08 01:30:10;;;;;;;104.15;84.82;;;;;;;23.75;92.68;99205.31;5103697;27;20440;-79
2023/09/08 01:32:55;;;;;;;100.47;78.35;;;;;;;23.92;92.00;99210.28;5123914;27;20038;-79
2023/09/08 01:35:39;;;;;;;100.15;79.90;;;;;;;23.88;92.43;99217.28;5109632;27;20103;-80
2023/09/08 01:38:24;;;;;;;104.53;83.63;;;;;;;23.82;92.80;99216.50;5101614;27;20104;-79
2023/09/08 01:41:09;;;;;;;94.20;77.53;;;;;;;23.83;92.31;99215.44;5108669;27;20039;-80
2023/09/08 01:43:54;;;;;;;100.22;81.65;;;;;;;23.82;92.82;99203.13;5110053;27;20123;-79
2023/09/08 01:46:40;;;;;;;105.97;84.68;;;;;;;23.76;93.46;99212.28;5120360;27;20042;-79
2023/09/08 01:49:24;;;;;;;102.20;80.75;;;;;;;23.82;93.25;99201.25;5108273;27;20401;-80
2023/09/08 01:52:09;;;;;;;102.90;83.57;;;;;;;23.70;94.15;99195.44;5118635;27;20239;-80
2023/09/08 01:54:53;;;;;;;108.60;85.57;;;;;;;23.80;93.77;99206.09;5108027;27;20095;-79
2023/09/08 01:57:37;;;;;;;118.57;94.10;;;;;;;23.70;94.75;99203.47;5126833;27;20043;-80
2023/09/08 02:00:21;;;;;;;111.80;88.13;;;;;;;23.79;94.15;99209.84;5101712;28;20046;-80
2023/09/08 02:03:06;;;;;;;111.45;86.05;;;;;;;23.90;93.88;99212.44;5106343;27;20037;-80
2023/09/08 02:05:49;;;;;;;108.35;86.78;;;;;;;23.94;94.30;99208.94;5108494;27;20107;-79
2023/09/08 02:08:33;;;;;;;114.97;92.43;;;;;;;23.84;95.50;99200.16;5118931;27;20038;-80
2023/09/08 02:11:17;;;;;;;106.38;84.82;;;;;;;23.97;94.66;99199.50;5106843;27;22070;-80
2023/09/08 02:14:01;;;;;;;109.85;86.07;;;;;;;23.98;95.32;99193.09;5107348;27;20039;-79
2023/09/08 02:16:45;;;;;;;116.82;89.53;;;;;;;23.97;95.50;99194.16;5120887;27;20038;-79
2023/09/08 02:19:29;;;;;;;118.05;91.38;;;;;;;23.87;95.76;99183.53;5102076;27;20051;-79
2023/09/08 02:22:13;;;;;;;123.93;92.88;;;;;;;23.88;95.53;99188.63;5106599;27;20115;-80
2023/09/08 02:24:58;;;;;;;118.25;92.43;;;;;;;23.91;95.56;99185.38;5125846;27;20478;-79
2023/09/08 02:27:42;;;;;;;113.38;89.07;;;;;;;23.85;95.80;99177.66;5101329;27;20034;-80
2023/09/08 02:30:26;;;;;;;104.38;83.80;;;;;;;23.95;95.59;99178.38;5120993;27;20047;-80
2023/09/08 02:33:09;;;;;;;116.40;90.40;;;;;;;24.00;95.41;99174.03;5108125;27;20046;-80
2023/09/08 02:35:54;;;;;;;101.82;82.55;;;;;;;24.04;94.91;99170.56;5107619;27;20091;-81
2023/09/08 02:38:38;;;;;;;106.07;84.22;;;;;;;23.99;94.96;99173.25;5103668;27;20096;-80
2023/09/08 02:41:23;;;;;;;109.03;84.65;;;;;;;23.99;95.01;99175.13;5125112;27;20041;-79
2023/09/08 02:44:07;;;;;;;109.32;86.80;;;;;;;23.88;95.67;99171.72;5122699;27;20038;-78
2023/09/08 02:46:51;;;;;;;106.60;85.25;;;;;;;24.18;94.37;99175.28;5109272;27;20046;-78
2023/09/08 02:49:35;;;;;;;105.32;84.70;;;;;;;24.39;93.49;99157.91;5102333;28;20051;-79
2023/09/08 02:52:19;;;;;;;107.05;86.50;;;;;;;24.51;92.15;99178.97;5107796;27;20401;-78
2023/09/08 02:55:03;;;;;;;113.82;85.60;;;;;;;24.45;92.63;99171.25;5108610;27;20069;-78
2023/09/08 02:57:48;;;;;;;106.00;84.25;;;;;;;24.41;92.77;99172.91;5105870;27;20055;-78
2023/09/08 03:00:32;;;;;;;117.30;88.53;;;;;;;24.41;92.06;99171.00;5121569;27;20037;-79
2023/09/08 03:03:16;;;;;;;100.00;80.65;;;;;;;24.42;91.84;99171.84;5108219;27;20054;-78
2023/09/08 03:06:03;;;;;;;103.30;81.97;;;;;;;24.02;93.06;99170.03;5105407;27;20050;-79
2023/09/08 03:08:47;;;;;;;98.13;77.97;;;;;;;24.01;94.02;99179.13;5104773;27;20042;-79
2023/09/08 03:11:31;;;;;;;106.13;84.18;;;;;;;23.77;95.18;99169.09;5120231;27;20538;-79
2023/09/08 03:14:15;;;;;;;107.70;82.90;;;;;;;23.92;94.69;99172.75;5108997;27;20053;-79
2023/09/08 03:16:59;;;;;;;111.13;87.13;;;;;;;23.88;94.99;99177.91;5107100;27;20401;-79
2023/09/08 03:19:45;;;;;;;111.47;82.82;;;;;;;23.88;95.04;99175.22;5106407;27;20099;-79
2023/09/08 03:22:29;;;;;;;109.75;84.88;;;;;;;23.78;95.55;99184.13;5107350;27;20050;-79
2023/09/08 03:25:14;;;;;;;111.40;88.93;;;;;;;23.81;95.29;99183.56;5106603;27;20181;-79
2023/09/08 03:27:59;;;;;;;113.05;87.82;;;;;;;23.75;95.56;99179.31;5106513;27;20089;-79
2023/09/08 03:30:43;;;;;;;109.90;84.43;;;;;;;23.92;94.93;99173.56;5103611;27;20049;-82
2023/09/08 03:33:27;;;;;;;101.18;80.95;;;;;;;23.90;94.95;99170.38;5106376;27;20468;-78
2023/09/08 03:36:11;;;;;;;107.15;82.97;;;;;;;23.73;95.01;99153.88;5120276;27;20499;-80
2023/09/08 03:38:54;;;;;;;116.07;86.20;;;;;;;23.74;95.42;99171.56;5118333;27;20039;-80
2023/09/08 03:41:39;;;;;;;105.25;82.85;;;;;;;23.82;95.09;99162.91;5097758;28;20043;-80
2023/09/08 03:44:23;;;;;;;105.15;81.00;;;;;;;23.86;94.92;99168.53;5106675;27;20042;-79
2023/09/08 03:47:07;;;;;;;114.18;87.03;;;;;;;23.79;94.62;99164.28;5109835;27;20073;-79
2023/09/08 03:49:51;;;;;;;104.13;83.30;;;;;;;23.83;94.84;99161.81;5122103;27;20054;-79
2023/09/08 03:52:35;;;;;;;106.03;83.47;;;;;;;23.85;94.29;99157.00;5106511;27;20598;-79
2023/09/08 03:55:19;;;;;;;106.35;82.53;;;;;;;23.74;94.77;99156.25;5108563;27;20083;-79
2023/09/08 03:58:04;;;;;;;100.10;79.03;;;;;;;23.76;94.58;99150.63;5104442;27;20038;-80
2023/09/08 04:00:48;;;;;;;102.32;80.97;;;;;;;23.72;94.30;99147.72;5104134;27;20069;-80
2023/09/08 04:03:32;;;;;;;108.72;83.35;;;;;;;23.59;95.49;99148.34;5122151;27;20045;-79
2023/09/08 04:06:16;;;;;;;109.75;85.28;;;;;;;23.61;95.50;99140.84;5110456;27;20081;-80
2023/09/08 04:09:00;;;;;;;108.40;82.68;;;;;;;23.68;94.72;99141.31;5120012;27;20039;-80
2023/09/08 04:11:44;;;;;;;114.65;84.65;;;;;;;23.64;94.89;99151.78;5116020;27;20042;-80
2023/09/08 04:14:30;;;;;;;102.90;80.32;;;;;;;23.61;94.88;99159.59;5120280;27;20050;-80
2023/09/08 04:17:14;;;;;;;108.07;86.00;;;;;;;23.36;95.07;99158.66;5104621;27;20042;-80
2023/09/08 04:19:58;;;;;;;110.35;84.40;;;;;;;23.33;95.67;99153.84;5115890;27;20047;-80
2023/09/08 04:22:42;;;;;;;106.82;80.53;;;;;;;23.45;95.09;99153.50;5097174;27;20118;-79
2023/09/08 04:25:26;;;;;;;111.97;84.43;;;;;;;23.43;95.58;99156.50;5103025;27;20076;-79
2023/09/08 04:28:10;;;;;;;108.47;82.05;;;;;;;23.47;95.71;99162.06;5100446;27;20034;-79
2023/09/08 04:30:54;;;;;;;104.55;80.55;;;;;;;23.52;95.24;99162.84;5101811;27;20054;-79
2023/09/08 04:33:39;;;;;;;100.88;76.03;;;;;;;23.44;95.17;99160.75;5104245;27;20445;-78
2023/09/08 04:36:23;;;;;;;105.38;79.95;;;;;;;23.35;95.38;99151.69;5099523;27;20500;-79
2023/09/08 04:39:10;;;;;;;99.97;76.18;;;;;;;23.38;95.15;99159.16;5105008;28;20103;-79
2023/09/08 04:41:54;;;;;;;95.85;74.88;;;;;;;23.34;94.72;99156.25;5104981;27;20038;-79
2023/09/08 04:44:38;;;;;;;95.07;72.22;;;;;;;23.40;94.33;99162.41;5099696;27;20042;-80
2023/09/08 04:47:23;;;;;;;101.13;77.22;;;;;;;23.25;94.87;99161.41;5108004;27;20077;-79
2023/09/08 04:50:07;;;;;;;101.03;79.05;;;;;;;23.16;95.15;99160.31;5104589;28;20072;-80
2023/09/08 04:52:52;;;;;;;101.47;77.80;;;;;;;22.99;96.28;99167.91;5103519;27;20506;-79
2023/09/08 04:55:36;;;;;;;100.65;75.72;;;;;;;23.21;95.13;99165.69;5118279;27;20119;-80
2023/09/08 04:58:19;;;;;;;103.43;78.95;;;;;;;23.14;94.73;99169.72;5118589;28;20099;-79
2023/09/08 05:01:03;;;;;;;94.70;76.20;;;;;;;23.18;94.92;99170.78;5118735;28;20441;-79
2023/09/08 05:03:47;;;;;;;100.10;77.40;;;;;;;23.15;95.51;99172.13;5102164;28;20556;-79
2023/09/08 05:06:31;;;;;;;109.70;82.40;;;;;;;23.09;96.32;99167.88;5100272;28;20397;-79
2023/09/08 05:09:15;;;;;;;108.28;80.40;;;;;;;23.10;96.68;99164.94;5106340;28;20385;-79
2023/09/08 05:12:00;;;;;;;103.45;82.05;;;;;;;23.05;97.26;99177.53;5106626;28;20161;-79
2023/09/08 05:14:43;;;;;;;111.47;83.15;;;;;;;23.03;98.10;99185.81;5117320;28;20041;-78
2023/09/08 05:17:27;;;;;;;101.68;76.45;;;;;;;23.30;96.72;99178.50;5107046;28;20111;-79
2023/09/08 05:20:11;;;;;;;106.82;78.90;;;;;;;23.29;97.12;99184.94;5105877;28;20385;-81
2023/09/08 05:22:55;;;;;;;108.57;83.85;;;;;;;23.24;97.64;99175.84;5092838;28;20045;-81
2023/09/08 05:25:42;;;;;;;102.50;76.82;;;;;;;23.49;96.88;99182.16;5100146;28;20467;-80
2023/09/08 05:28:26;;;;;;;99.15;74.68;;;;;;;23.54;96.49;99184.78;5104798;28;20038;-80
2023/09/08 05:31:10;;;;;;;93.80;75.38;;;;;;;23.61;96.19;99184.50;5119307;28;20046;-79
2023/09/08 05:33:55;;;;;;;96.47;73.05;;;;;;;23.70;95.60;99184.69;5109320;28;20100;-78
2023/09/08 05:36:39;;;;;;;94.40;73.28;;;;;;;23.75;95.40;99184.66;5101378;28;20046;-79
2023/09/08 05:39:24;;;;;;;97.55;75.00;;;;;;;23.77;95.17;99182.50;5116729;28;20054;-79
2023/09/08 05:42:08;;;;;;;95.22;73.45;;;;;;;23.75;95.59;99190.03;5106552;28;20538;-81
2023/09/08 05:44:54;;;;;;;96.35;74.28;;;;;;;23.82;95.35;99184.34;5101683;28;20092;-80
2023/09/08 05:47:38;;;;;;;87.53;68.50;;;;;;;23.85;94.98;99183.78;5104286;28;20173;-79
2023/09/08 05:50:22;;;;;;;92.03;73.25;;;;;;;23.91;94.69;99195.28;5105055;28;20050;-79
2023/09/08 05:53:06;;;;;;;89.18;68.75;;;;;;;23.78;95.02;99194.03;5107290;27;20072;-79
2023/09/08 05:55:50;;;;;;;72.57;59.42;;;;;;;23.90;95.13;99197.19;5106694;27;20092;-80
2023/09/08 05:58:35;;;;;;;77.93;61.38;;;;;;;23.92;94.47;99195.00;5124676;27;20442;-79
2023/09/08 06:01:18;;;;;;;75.70;59.55;;;;;;;23.95;94.62;99201.69;5107674;27;20045;-79
2023/09/08 06:04:02;;;;;;;76.38;59.28;;;;;;;23.93;94.51;99193.13;5107964;27;20114;-79
2023/09/08 06:06:47;;;;;;;74.95;61.08;;;;;;;23.92;94.62;99200.38;5105100;27;20531;-79
2023/09/08 06:09:32;;;;;;;76.72;62.15;;;;;;;23.91;94.43;99200.63;5125717;27;20113;-79
2023/09/08 06:12:16;;;;;;;80.70;62.70;;;;;;;23.89;94.21;99213.53;5120740;27;20038;-80
2023/09/08 06:15:04;;;;;;;81.05;65.85;;;;;;;24.03;93.79;99201.13;5124294;27;20041;-79
2023/09/08 06:17:48;;;;;;;82.30;67.60;;;;;;;23.99;93.40;99199.25;5100637;27;20441;-79
2023/09/08 06:20:32;;;;;;;72.78;58.78;;;;;;;24.15;93.52;99186.53;5105060;27;20165;-81
2023/09/08 06:23:19;;;;;;;67.45;54.17;;;;;;;24.29;93.03;99198.22;5119954;27;20091;-80
2023/09/08 06:26:04;;;;;;;67.30;55.30;;;;;;;24.32;93.14;99197.66;5104152;27;20038;-78
2023/09/08 06:28:48;;;;;;;74.28;59.38;;;;;;;24.39;92.69;99192.78;5105708;27;20038;-80
2023/09/08 06:31:32;;;;;;;67.32;56.00;;;;;;;24.50;92.83;99192.66;5112739;27;20042;-80
2023/09/08 06:34:18;;;;;;;60.70;48.92;;;;;;;24.80;92.10;99201.53;5107668;27;20065;-78
2023/09/08 06:37:05;;;;;;;65.60;54.58;;;;;;;24.84;91.29;99207.91;5120303;27;20451;-78
2023/09/08 06:39:49;;;;;;;71.38;57.45;;;;;;;25.02;91.72;99214.41;5117272;27;20093;-78
2023/09/08 06:42:33;;;;;;;72.47;59.00;;;;;;;25.16;91.37;99211.84;5102073;27;20128;-78
2023/09/08 06:45:17;;;;;;;63.78;53.42;;;;;;;25.32;90.73;99217.81;5118881;27;20042;-78
2023/09/08 06:48:02;;;;;;;60.67;51.35;;;;;;;25.43;90.00;99207.75;5107425;27;20041;-78
2023/09/08 06:50:46;;;;;;;62.92;52.83;;;;;;;25.62;89.82;99205.06;5118864;27;20544;-79
2023/09/08 06:53:30;;;;;;;57.25;48.92;;;;;;;25.86;89.31;99214.16;5103862;27;20373;-80
2023/09/08 06:56:14;;;;;;;61.20;48.95;;;;;;;26.06;88.69;99203.06;5117420;27;20452;-81
2023/09/08 06:58:59;;;;;;;61.72;50.15;;;;;;;26.24;87.58;99214.09;5101551;27;20124;-80
2023/09/08 07:01:43;;;;;;;59.95;50.33;;;;;;;26.43;86.69;99207.88;5095279;28;20127;-81
2023/09/08 07:04:28;;;;;;;54.05;46.53;;;;;;;26.60;85.96;99213.50;5102261;27;20046;-82
2023/09/08 07:07:12;;;;;;;52.25;44.92;;;;;;;26.85;84.79;99210.63;5112533;27;20118;-79
2023/09/08 07:09:56;;;;;;;52.83;45.08;;;;;;;26.92;84.58;99211.03;5113107;27;20035;-81
2023/09/08 07:12:40;;;;;;;48.42;42.83;;;;;;;27.22;84.14;99215.00;5118850;27;20054;-79
2023/09/08 07:15:24;;;;;;;53.97;46.00;;;;;;;27.32;83.79;99213.22;5110288;27;20123;-85
2023/09/08 07:18:08;;;;;;;52.80;45.15;;;;;;;27.61;82.91;99217.44;5107844;27;20082;-86
2023/09/08 07:20:53;;;;;;;52.20;45.85;;;;;;;27.79;81.90;99216.47;5134142;27;20039;-91
2023/09/08 07:23:38;;;;;;;50.08;44.60;;;;;;;27.99;80.16;99203.63;5108726;27;20055;-87
2023/09/08 07:26:22;;;;;;;46.63;40.50;;;;;;;28.29;78.59;99212.06;5118123;27;20050;-89
2023/09/08 07:29:05;;;;;;;44.53;39.72;;;;;;;28.33;77.77;99221.16;5121604;27;20084;-90
2023/09/08 07:31:51;;;;;;;44.40;39.60;;;;;;;28.43;77.61;99228.19;5128200;27;20046;-88
2023/09/08 07:34:38;;;;;;;46.42;41.50;;;;;;;27.88;79.11;99227.34;5128305;27;20113;-88
2023/09/08 07:37:23;;;;;;;49.05;40.95;;;;;;;27.85;79.71;99224.44;5109268;27;20536;-90
2023/09/08 07:40:10;;;;;;;45.45;40.22;;;;;;;27.82;79.75;99220.47;5109439;27;20511;-89
2023/09/08 07:42:54;;;;;;;47.00;42.00;;;;;;;27.94;79.58;99234.19;5120888;27;20109;-87
2023/09/08 07:45:40;;;;;;;48.30;43.03;;;;;;;28.03;79.31;99226.16;5110062;27;20038;-91
2023/09/08 07:48:27;;;;;;;42.40;37.85;;;;;;;28.24;78.44;99220.28;5110236;27;20164;-89
2023/09/08 07:51:11;;;;;;;48.63;41.85;;;;;;;28.29;78.09;99228.25;5106069;27;20499;-89
2023/09/08 07:53:58;;;;;;;46.45;41.33;;;;;;;28.31;77.41;99226.06;5125101;27;20074;-89
2023/09/08 07:56:42;;;;;;;45.55;40.60;;;;;;;28.40;76.44;99222.63;5110838;27;20045;-89
2023/09/08 07:59:26;;;;;;;45.38;39.92;;;;;;;28.57;76.23;99225.41;5119151;27;20495;-90
2023/09/08 08:02:11;;;;;;;41.15;36.72;;;;;;;28.72;75.94;99231.50;5116325;27;20037;-90
2023/09/08 08:04:55;;;;;;;43.38;38.03;;;;;;;29.03;75.38;99227.97;5109219;27;20050;-90
2023/09/08 08:07:39;;;;;;;39.95;35.75;;;;;;;29.18;75.06;99218.63;5109739;27;20819;-89
2023/09/08 08:10:24;;;;;;;41.63;37.17;;;;;;;29.34;74.57;99222.47;5101873;27;20405;-89
2023/09/08 08:13:08;;;;;;;41.72;36.60;;;;;;;29.42;73.91;99222.84;5105981;27;20054;-85
2023/09/08 08:15:53;;;;;;;39.00;33.15;;;;;;;29.51;73.75;99226.34;5099770;27;20115;-84
2023/09/08 08:18:37;;;;;;;39.10;34.95;;;;;;;29.50;73.30;99235.56;5100482;27;20038;-84
2023/09/08 08:21:25;;;;;;;40.10;35.90;;;;;;;29.48;73.25;99227.78;5107510;27;20035;-86
2023/09/08 08:24:10;;;;;;;41.72;37.15;;;;;;;29.42;72.80;99233.66;5105167;27;20038;-84
2023/09/08 08:26:54;;;;;;;41.83;35.65;;;;;;;29.66;72.54;99233.19;5104278;27;20069;-85
2023/09/08 08:29:39;;;;;;;40.05;35.65;;;;;;;29.74;71.89;99229.69;5124251;27;20038;-84
2023/09/08 08:32:23;;;;;;;34.13;30.63;;;;;;;30.10;71.77;99229.69;5114642;27;20412;-85
2023/09/08 08:35:07;;;;;;;39.95;35.58;;;;;;;30.18;70.05;99234.28;5123024;27;20042;-85
2023/09/08 08:37:51;;;;;;;37.33;33.30;;;;;;;30.49;70.52;99230.56;5116855;27;20100;-84
2023/09/08 08:40:38;;;;;;;38.60;34.53;;;;;;;30.55;69.98;99229.25;5120076;27;20904;-85
2023/09/08 08:43:23;;;;;;;35.95;32.05;;;;;;;30.67;69.80;99231.31;5108226;27;20513;-85
2023/09/08 08:46:09;;;;;;;37.40;33.40;;;;;;;30.87;69.44;99229.78;5099714;28;20038;-85
2023/09/08 08:48:54;;;;;;;38.72;34.55;;;;;;;31.12;68.43;99221.84;5113211;27;20088;-84
2023/09/08 08:51:39;;;;;;;36.15;32.00;;;;;;;31.31;67.99;99236.91;5122354;27;20046;-85
2023/09/08 08:54:24;;;;;;;35.95;32.20;;;;;;;31.46;67.45;99233.59;5121910;27;20511;-84
2023/09/08 08:57:09;;;;;;;33.35;29.83;;;;;;;31.61;67.24;99232.22;5100947;28;20042;-84
2023/09/08 08:59:53;;;;;;;35.20;31.52;;;;;;;31.75;67.02;99239.28;5102743;28;20078;-87
2023/09/08 09:02:42;;;;;;;33.03;29.63;;;;;;;31.89;66.60;99244.47;5109052;28;20103;-84
2023/09/08 09:05:26;;;;;;;38.75;33.35;;;;;;;32.00;65.24;99234.75;5123646;28;20038;-83
2023/09/08 09:08:12;;;;;;;34.75;30.77;;;;;;;32.17;64.69;99235.72;5105094;28;20058;-85
2023/09/08 09:10:56;;;;;;;34.47;30.42;;;;;;;32.39;64.38;99244.63;5119022;28;20054;-85
2023/09/08 09:13:40;;;;;;;36.90;33.00;;;;;;;32.50;63.99;99243.06;5122996;28;20444;-83
2023/09/08 09:16:24;;;;;;;33.70;28.48;;;;;;;32.74;63.20;99247.75;5099714;28;20043;-87
2023/09/08 09:19:25;;;;;;;33.78;30.35;;;;;;;32.80;62.19;99242.84;5097779;28;20043;-86
2023/09/08 09:22:09;;;;;;;30.35;27.15;;;;;;;33.25;62.84;99246.59;5100581;28;20092;-83
2023/09/08 09:24:57;;;;;;;31.25;27.88;;;;;;;33.32;62.23;99251.44;5119787;28;20447;-83
2023/09/08 09:27:44;;;;;;;32.72;29.38;;;;;;;33.19;61.11;99242.53;5124788;27;20131;-84
2023/09/08 09:30:47;;;;;;;29.50;26.52;;;;;;;33.24;62.40;99246.94;5110189;27;20059;-87
2023/09/08 09:33:31;;;;;;;28.33;25.38;;;;;;;33.19;62.07;99246.03;5109175;27;20061;-86
2023/09/08 09:36:20;;;;;;;28.25;25.17;;;;;;;33.16;61.29;99246.72;5110256;27;20047;-86
2023/09/08 09:39:05;;;;;;;28.85;25.77;;;;;;;32.98;61.43;99232.59;5108474;27;20070;-84
2023/09/08 09:41:54;;;;;;;28.17;25.17;;;;;;;32.89;61.96;99238.13;5124800;27;20061;-84
2023/09/08 09:44:38;;;;;;;29.73;26.70;;;;;;;32.54;62.78;99246.69;5104948;27;20425;-84
2023/09/08 09:47:22;;;;;;;33.28;26.58;;;;;;;32.68;62.38;99251.00;5122717;27;20041;-84
2023/09/08 09:50:07;;;;;;;29.00;25.92;;;;;;;32.67;62.69;99238.56;5102742;28;20074;-85
2023/09/08 09:52:57;;;;;;;27.80;24.90;;;;;;;32.95;62.38;99237.91;5105617;27;20077;-85
2023/09/08 09:55:42;;;;;;;27.30;24.48;;;;;;;33.17;61.90;99240.13;5107594;27;20092;-86
2023/09/08 09:58:27;;;;;;;27.27;24.48;;;;;;;33.31;61.19;99234.34;5126822;27;20148;-88
2023/09/08 10:01:11;;;;;;;29.73;26.52;;;;;;;33.31;60.80;99233.56;5126975;27;20153;-85
2023/09/08 10:03:56;;;;;;;29.58;26.30;;;;;;;33.38;61.53;99239.19;5110549;27;20380;-87
2023/09/08 10:06:40;;;;;;;28.40;25.60;;;;;;;33.44;61.26;99232.44;5119714;27;20122;-86
2023/09/08 10:09:24;;;;;;;27.85;25.00;;;;;;;33.49;61.01;99230.59;5109496;27;20050;-86
2023/09/08 10:12:09;;;;;;;29.83;26.83;;;;;;;33.44;60.48;99216.09;5106787;27;20054;-85
2023/09/08 10:14:56;;;;;;;27.70;24.77;;;;;;;33.50;60.68;99224.00;5117727;27;20058;-85
2023/09/08 10:17:44;;;;;;;26.85;24.08;;;;;;;33.56;60.75;99228.88;5110163;27;20537;-85
2023/09/08 10:20:31;;;;;;;27.30;23.70;;;;;;;33.51;60.21;99220.97;5109620;27;20045;-85
2023/09/08 10:23:54;;;;;;;28.58;25.58;;;;;;;33.67;59.95;99218.28;5106308;27;20087;-85
2023/09/08 10:26:43;;;;;;;28.35;24.20;;;;;;;33.75;59.49;99220.06;5090127;27;20050;-85
2023/09/08 10:29:27;;;;;;;29.05;25.95;;;;;;;33.58;58.96;99226.59;5104251;27;20061;-85
2023/09/08 10:32:12;;;;;;;27.17;24.42;;;;;;;33.66;59.27;99224.88;5125344;27;20042;-85
2023/09/08 10:34:57;;;;;;;23.50;20.98;;;;;;;33.75;60.43;99224.72;5124993;27;20404;-86
2023/09/08 10:37:41;;;;;;;24.95;22.42;;;;;;;33.87;59.33;99221.16;5106619;27;20533;-86
2023/09/08 10:40:27;;;;;;;22.08;19.77;;;;;;;33.93;59.52;99227.91;5109972;27;20046;-85
2023/09/08 10:43:13;;;;;;;21.95;19.65;;;;;;;33.97;60.45;99222.59;5124193;27;20549;-85
2023/09/08 10:45:57;;;;;;;19.80;17.77;;;;;;;34.03;60.07;99229.38;5102736;27;20127;-85
2023/09/08 10:48:44;;;;;;;21.38;17.90;;;;;;;34.35;59.61;99223.16;5119787;27;20126;-85
2023/09/08 10:51:29;;;;;;;23.05;19.92;;;;;;;34.56;58.96;99226.44;5108911;27;20035;-86
2023/09/08 10:54:42;;;;;;;19.27;17.30;;;;;;;34.96;59.06;99224.66;5120203;27;20043;-85
2023/09/08 10:57:27;;;;;;;21.50;17.00;;;;;;;35.22;57.41;99217.06;5104917;27;20099;-85
2023/09/08 11:00:17;;;;;;;16.25;14.57;;;;;;;35.44;57.00;99210.91;5107369;27;20042;-85
2023/09/08 11:03:03;;;;;;;19.40;15.75;;;;;;;35.60;56.31;99220.97;5127016;27;20516;-86
2023/09/08 11:05:50;;;;;;;16.20;14.50;;;;;;;35.98;56.40;99215.81;5110798;27;20042;-87
2023/09/08 11:08:40;;;;;;;17.05;12.70;;;;;;;36.23;55.98;99213.56;5127371;27;20113;-84
2023/09/08 11:11:25;;;;;;;16.60;15.00;;;;;;;36.26;54.58;99210.09;5108378;27;20062;-86
2023/09/08 11:14:09;;;;;;;15.18;13.77;;;;;;;36.43;55.54;99208.03;5108752;27;20454;-86
2023/09/08 11:16:53;;;;;;;15.48;13.38;;;;;;;36.64;55.08;99206.81;5101751;27;20043;-85
2023/09/08 11:19:48;;;;;;;19.23;16.00;;;;;;;36.29;53.52;99203.91;5124380;27;20085;-86
2023/09/08 11:22:32;;;;;;;16.38;14.65;;;;;;;36.22;53.63;99203.78;5100384;27;20107;-86
2023/09/08 11:25:16;;;;;;;15.32;13.80;;;;;;;36.34;53.21;99210.22;5122638;27;20066;-87
2023/09/08 11:28:01;;;;;;;14.73;13.10;;;;;;;36.56;53.11;99209.44;5104811;27;20042;-86
2023/09/08 11:30:49;;;;;;;16.17;14.50;;;;;;;36.43;52.11;99213.50;5103469;27;20070;-85
2023/09/08 11:33:38;;;;;;;18.88;15.80;;;;;;;36.11;52.17;99213.72;5106405;27;20119;-86
2023/09/08 11:36:23;;;;;;;15.50;14.00;;;;;;;36.24;53.30;99217.06;5120009;27;20054;-85
2023/09/08 11:39:10;;;;;;;16.02;14.20;;;;;;;36.40;51.41;99216.97;5123187;27;20163;-86
2023/09/08 11:41:54;;;;;;;14.90;13.38;;;;;;;36.70;51.45;99219.00;5103159;27;20089;-86
2023/09/08 11:44:40;;;;;;;16.45;14.57;;;;;;;36.82;51.55;99213.34;5112000;27;20042;-85
2023/09/08 11:47:25;;;;;;;17.10;13.45;;;;;;;36.88;51.71;99216.56;5106261;27;20050;-85
2023/09/08 11:50:15;;;;;;;14.30;12.90;;;;;;;36.91;51.46;99218.53;5099295;28;20038;-86
2023/09/08 11:53:00;;;;;;;15.63;13.02;;;;;;;36.97;52.20;99219.03;5122320;27;20529;-87
2023/09/08 11:55:44;;;;;;;15.52;13.82;;;;;;;37.16;50.91;99209.91;5108002;27;20087;-85
2023/09/08 11:58:29;;;;;;;14.35;12.95;;;;;;;37.21;50.73;99214.28;5123116;27;20099;-86
2023/09/08 12:01:13;;;;;;;17.25;14.10;;;;;;;37.25;51.09;99206.91;5107496;27;20042;-85
2023/09/08 12:03:57;;;;;;;13.13;11.80;;;;;;;37.35;50.62;99211.72;5107566;27;20042;-85
2023/09/08 12:06:42;;;;;;;16.80;12.73;;;;;;;37.31;49.52;99199.94;5122101;27;20045;-86
2023/09/08 12:09:26;;;;;;;16.60;14.85;;;;;;;37.42;49.53;99203.59;5125373;27;20100;-87
2023/09/08 12:12:13;;;;;;;14.93;13.10;;;;;;;37.52;50.05;99206.84;5104155;27;20050;-85
2023/09/08 12:14:57;;;;;;;15.63;13.00;;;;;;;37.65;50.85;99202.69;5108357;27;20042;-85
2023/09/08 12:17:49;;;;;;;17.85;16.08;;;;;;;37.85;49.63;99205.25;5111229;27;20038;-86
2023/09/08 12:20:35;;;;;;;17.20;15.50;;;;;;;36.94;49.77;99200.59;5107056;27;20514;-86
2023/09/08 12:23:22;;;;;;;15.00;13.60;;;;;;;37.36;49.90;99198.81;5107041;27;20131;-85
2023/09/08 12:26:06;;;;;;;15.80;14.23;;;;;;;37.27;50.59;99207.31;5120798;27;20099;-85
2023/09/08 12:28:51;;;;;;;16.83;15.13;;;;;;;37.23;50.38;99209.22;5124877;27;20034;-86
2023/09/08 12:31:35;;;;;;;17.77;16.00;;;;;;;36.71;50.00;99204.19;5122126;27;20097;-85
2023/09/08 12:34:20;;;;;;;13.63;12.23;;;;;;;36.78;50.77;99207.03;5103556;28;20035;-86
2023/09/08 12:37:07;;;;;;;18.40;16.42;;;;;;;36.69;51.19;99199.09;5102147;28;20097;-86